Pagrindinis puslapis
METAR-TAF:

METAR-TAF

Oro uostai :

Masejas, Alagoasas, Brazilija

platuma: 09-31S, ilguma: 035-47W, Aukštis: 117 m

Dabartinis oras

Ataskaita buvo paskelbta 53 minutes, ne 19:00 UTC
Vėjas 13 kt iš Rytų
Temperatūra 30°C
Drėgmė 55%
Slėgis 1012 hPa
Matomumas 10 km arba daugiau
nėra debesų žemiau 1500 m ir nėra kamuolinių lietaus debesų

METAR: SBMO 051900Z 10013KT CAVOK 30/20 Q1012

Laikas: 16:53 (19:53 UTC)

Prognozė

Ataskaita buvo paskelbta 3 valandos ir 53 minutes, ne 16:00 UTC
Prognozė galioja nuo 05 metu 18 UTC su 06 metu 18 UTC
Vėjas 15 kt iš Rytų
Matomumas 10 km arba daugiau
Išsisklaidę debesys ne aukštis 2700 ft
Tapsmas
nuo 05 metu 22 UTC su 05 metu 24 UTC
Vėjas 5 kt iš Šiaurės/Šiaurės Rytų
Išsisklaidę debesys ne aukštis 2000 ft
Tapsmas
nuo 06 metu 11 UTC su 06 metu 13 UTC
Vėjas 15 kt iš Rytų
Išsisklaidę debesys ne aukštis 3000 ft

TAF: SBMO 051600Z 0518/0618 09015KT 9999 SCT027 TN22/0607Z TX32/0614Z BECMG 0522/0524 03005KT SCT020 BECMG 0611/0613 09015KT SCT030 RMK PFY

Orai ataskaitas ir orų prognozės (METAR, TAF).

turimą stotys yra geltonos ir raudonos taškus žemėlapyje.

Perkelti pele per norėdami pamatyti stoties vardą.

Tada spustelėkite, norėdami matyti oro stebėjimo ir prognozės.

Norėdami pakeisti žemėlapį: spustelėkite ant žalios mygtukų su juodo kryžiaus žemyn,; žalią mygtuką su brūkšneliu, jei norite nutolinti; arba žalių rodyklių gretimoms žemėlapius.


METAR-TAF: